Time;durP1;ratioP1;P1;durP2;ratioP2;P2;SDS_P1;SDS_P2;PMS_P1;PMS_P2;Temp;Humidity;BMP_temperature;BMP_pressure;BME280_temperature;BME280_humidity;BME280_pressure;Samples;Min_cycle;Max_cycle;Signal;HPM_P1;HPM_P2
2021/12/19 00:00:28;;;;;;;147.77;89.57;;;;;;;-0.88;88.88;98368.72;10372397;28;20687;-59
2021/12/19 00:10:44;;;;;;;113.85;69.10;;;;;;;-0.85;88.82;98340.84;10372733;28;19962;-58
2021/12/19 00:15:43;;;;;;;89.97;50.80;;;;;;;-0.84;88.83;98344.25;10372468;28;20067;-59
2021/12/19 00:20:42;;;;;;;95.13;54.00;;;;;;;-0.88;88.83;98338.13;10370958;28;20043;-58
2021/12/19 00:25:42;;;;;;;89.20;52.22;;;;;;;-0.82;88.89;98343.53;10370518;28;20072;-58
2021/12/19 00:30:41;;;;;;;92.75;55.65;;;;;;;-0.78;88.61;98339.50;10370636;28;20060;-59
2021/12/19 00:35:40;;;;;;;95.13;56.10;;;;;;;-0.75;88.80;98344.75;10379557;28;20065;-58
2021/12/19 00:40:39;;;;;;;92.63;55.05;;;;;;;-0.84;88.70;98340.06;10379354;28;20033;-59
2021/12/19 00:45:40;;;;;;;93.53;54.58;;;;;;;-1.02;89.00;98339.94;10379322;28;20057;-58
2021/12/19 00:50:39;;;;;;;97.22;52.55;;;;;;;-1.14;89.48;98329.09;10379419;28;20061;-58
2021/12/19 00:55:38;;;;;;;91.32;51.47;;;;;;;-1.20;88.94;98326.22;10378417;28;20027;-58
2021/12/19 01:00:37;;;;;;;92.60;49.65;;;;;;;-1.28;88.57;98320.72;10378410;28;20045;-58
2021/12/19 01:05:38;;;;;;;78.63;43.88;;;;;;;-1.41;88.48;98323.38;10377504;28;20060;-58
2021/12/19 01:10:39;;;;;;;87.55;46.63;;;;;;;-1.45;88.39;98336.72;10376944;28;20063;-59
2021/12/19 01:15:38;;;;;;;87.63;48.10;;;;;;;-1.57;88.42;98318.22;10375516;28;20071;-59
2021/12/19 01:20:38;;;;;;;;;;;;;;;-1.59;88.42;98319.81;10377607;28;20449;-59
2021/12/19 01:25:37;;;;;;;90.00;52.60;;;;;;;-1.68;88.59;98303.25;10377402;28;19951;-58
2021/12/19 01:30:36;;;;;;;;;;;;;;;-1.76;88.73;98299.38;10378184;28;20065;-59
2021/12/19 01:35:35;;;;;;;74.43;42.78;;;;;;;-1.85;88.10;98289.56;10377496;28;19917;-58
2021/12/19 01:40:34;;;;;;;63.58;35.97;;;;;;;-1.93;88.37;98287.41;10376547;28;20064;-58
2021/12/19 01:45:37;;;;;;;64.70;35.78;;;;;;;-2.08;88.57;98264.50;10373798;28;20075;-59
2021/12/19 01:50:37;;;;;;;96.85;54.88;;;;;;;-2.08;89.32;98290.84;10375908;28;20060;-59
2021/12/19 01:55:37;;;;;;;99.00;56.20;;;;;;;-2.32;89.63;98276.72;10376902;28;20849;-58
2021/12/19 02:00:42;;;;;;;112.68;63.42;;;;;;;-2.36;90.53;98282.41;10374037;28;20508;-58
2021/12/19 02:05:42;;;;;;;104.90;57.13;;;;;;;-2.52;90.30;98265.41;10375413;28;20075;-58
2021/12/19 02:10:42;;;;;;;103.95;57.78;;;;;;;-2.41;89.93;98282.13;10376196;28;20072;-58
2021/12/19 02:15:42;;;;;;;115.05;60.65;;;;;;;-2.47;90.04;98293.63;10374475;28;20071;-58
2021/12/19 02:20:46;;;;;;;94.63;51.63;;;;;;;-2.63;90.69;98276.59;10373759;28;20068;-58
2021/12/19 02:25:47;;;;;;;99.50;54.25;;;;;;;-2.54;90.39;98283.09;10374627;28;20075;-58
2021/12/19 02:30:47;;;;;;;92.97;51.42;;;;;;;-2.40;90.36;98280.47;10373703;28;20159;-58
2021/12/19 02:35:56;;;;;;;93.00;53.35;;;;;;;-2.27;90.12;98270.22;10372881;28;20076;-58
2021/12/19 02:51:35;;;;;;;72.70;41.80;;;;;;;-1.88;90.33;98258.00;10374654;28;20060;-59
2021/12/19 02:56:34;;;;;;;73.00;42.90;;;;;;;-1.85;89.54;98233.59;10373696;28;20060;-58
2021/12/19 03:01:33;;;;;;;71.72;41.40;;;;;;;-1.76;89.79;98235.78;10372708;28;20047;-58
2021/12/19 03:06:32;;;;;;;70.05;39.53;;;;;;;-1.80;89.66;98233.84;10373053;28;20068;-58
2021/12/19 03:21:48;;;;;;;70.15;40.33;;;;;;;-2.05;88.88;98229.09;10372986;28;20068;-58
2021/12/19 03:26:47;;;;;;;83.95;44.85;;;;;;;-2.29;89.25;98224.41;10372623;28;20067;-59
2021/12/19 03:31:46;;;;;;;85.40;46.30;;;;;;;-2.37;89.31;98230.69;10373653;28;20033;-58
2021/12/19 03:36:45;;;;;;;76.97;42.15;;;;;;;-2.52;89.84;98225.63;10373045;28;20064;-58
2021/12/19 03:41:44;;;;;;;75.57;41.33;;;;;;;-2.51;89.47;98221.41;10370682;28;20065;-59
2021/12/19 03:46:43;;;;;;;76.30;40.58;;;;;;;-2.53;89.58;98213.69;10370868;28;20033;-59
2021/12/19 03:51:42;;;;;;;77.65;40.72;;;;;;;-2.60;89.61;98219.22;10372562;28;20037;-59
2021/12/19 03:56:41;;;;;;;80.57;41.28;;;;;;;-2.67;89.69;98214.56;10372935;28;20055;-59
2021/12/19 04:01:46;;;;;;;;;;;;;;;-2.73;89.90;98210.00;10373853;28;20091;-59
2021/12/19 04:06:45;;;;;;;79.22;42.92;;;;;;;-2.86;90.18;98196.50;10373947;28;19959;-59
2021/12/19 04:11:44;;;;;;;;;;;;;;;-2.83;89.56;98200.09;10380119;28;20080;-59
2021/12/19 04:16:43;;;;;;;74.95;40.40;;;;;;;-2.82;89.81;98204.41;10379940;28;19960;-59
2021/12/19 04:21:42;;;;;;;77.10;41.00;;;;;;;-2.79;89.62;98207.09;10379845;28;20072;-59
2021/12/19 04:26:40;;;;;;;82.30;43.13;;;;;;;-2.78;89.83;98195.28;10379739;28;20033;-59
2021/12/19 04:31:40;;;;;;;91.57;48.22;;;;;;;-2.68;89.80;98192.50;10380195;28;20025;-59
2021/12/19 04:36:42;;;;;;;;;;;;;;;-2.54;89.72;98201.78;10380122;28;20468;-59
2021/12/19 04:52:59;;;;;;;86.32;46.53;;;;;;;-2.36;89.57;98170.56;10355480;28;20064;-59
2021/12/19 04:58:03;;;;;;;84.90;46.05;;;;;;;-2.39;89.27;98155.16;10378269;28;20080;-59
2021/12/19 05:03:09;;;;;;;70.28;39.50;;;;;;;-2.32;89.29;98169.97;10360847;28;20158;-59
2021/12/19 05:19:17;;;;;;;158.23;92.88;;;;;;;-2.59;89.06;98167.63;10361439;28;20064;-59
2021/12/19 05:29:17;;;;;;;55.47;32.10;;;;;;;-3.02;89.60;98161.72;10336333;28;20121;-59
2021/12/19 05:34:17;;;;;;;54.33;28.95;;;;;;;-3.02;89.27;98162.59;10340436;28;20490;-59
2021/12/19 05:49:50;;;;;;;70.20;38.30;;;;;;;-3.16;88.63;98140.59;10374310;28;20060;-58
2021/12/19 05:54:49;;;;;;;87.40;47.00;;;;;;;-3.20;89.03;98148.81;10349332;28;20072;-58
2021/12/19 05:59:50;;;;;;;97.88;51.97;;;;;;;-3.34;89.31;98150.56;10373784;28;20436;-58
2021/12/19 06:04:49;;;;;;;99.32;53.05;;;;;;;-3.43;89.32;98150.00;10376077;28;20467;-58
2021/12/19 06:09:48;;;;;;;76.60;40.53;;;;;;;-3.50;89.48;98138.63;10359921;28;20064;-58
2021/12/19 06:14:48;;;;;;;80.05;42.17;;;;;;;-3.57;89.33;98131.44;10332896;28;20109;-58
2021/12/19 06:19:47;;;;;;;84.07;43.40;;;;;;;-3.64;89.73;98121.69;10332542;28;20060;-58
2021/12/19 06:24:45;;;;;;;108.18;60.20;;;;;;;-3.65;89.89;98118.25;10332921;28;20033;-58
2021/12/19 06:29:44;;;;;;;139.70;79.03;;;;;;;-3.51;89.49;98116.56;10333771;28;20543;-58
2021/12/19 06:34:43;;;;;;;113.07;63.25;;;;;;;-3.47;89.41;98117.63;10332578;28;20021;-58
2021/12/19 06:39:43;;;;;;;89.88;48.75;;;;;;;-3.44;89.60;98107.66;10366828;28;20037;-58
2021/12/19 06:44:42;;;;;;;98.60;52.85;;;;;;;-3.45;89.77;98089.03;10371221;28;20064;-58
2021/12/19 06:49:41;;;;;;;122.95;65.07;;;;;;;-3.43;89.63;98079.84;10370376;28;20052;-58
2021/12/19 06:54:40;;;;;;;133.68;57.33;;;;;;;-3.34;89.61;98100.69;10374226;28;20037;-58
2021/12/19 06:59:39;;;;;;;130.80;60.30;;;;;;;-3.23;90.09;98098.75;10347552;28;20056;-58
2021/12/19 07:04:38;;;;;;;132.55;61.00;;;;;;;-3.22;90.03;98092.91;10373409;28;20671;-58
2021/12/19 07:09:38;;;;;;;136.25;61.10;;;;;;;-3.05;89.96;98081.19;10362195;28;20010;-58
2021/12/19 07:14:37;;;;;;;148.57;59.63;;;;;;;-3.02;90.04;98072.88;10333366;28;20064;-58
2021/12/19 07:19:36;;;;;;;164.30;61.63;;;;;;;-2.85;89.91;98073.81;10332243;28;20091;-58
2021/12/19 07:24:35;;;;;;;154.60;63.22;;;;;;;-2.84;90.13;98053.59;10331869;28;20064;-58
2021/12/19 07:29:34;;;;;;;156.73;60.55;;;;;;;-2.64;90.13;98067.41;10332787;28;20040;-58
2021/12/19 07:34:36;;;;;;;180.35;76.88;;;;;;;-2.60;90.17;98055.75;10329553;28;20037;-58
2021/12/19 07:44:35;;;;;;;261.63;105.20;;;;;;;-2.17;90.14;98051.34;10339439;28;20440;-58
2021/12/19 07:49:35;;;;;;;209.25;90.05;;;;;;;-2.01;89.61;98047.03;10375905;28;20461;-58
2021/12/19 07:54:34;;;;;;;332.40;140.90;;;;;;;-1.90;89.00;98046.81;10381251;28;20060;-58
2021/12/19 07:59:33;;;;;;;299.77;130.82;;;;;;;-1.73;89.56;98037.50;10359871;28;20042;-57
2021/12/19 08:04:32;;;;;;;264.25;121.55;;;;;;;-1.67;89.93;98036.97;10341802;28;20546;-58
2021/12/19 08:09:57;;;;;;;249.88;118.75;;;;;;;-1.50;90.12;98013.22;10347731;28;20023;-58
2021/12/19 08:14:56;;;;;;;262.35;120.32;;;;;;;-1.43;88.91;97989.81;10345071;28;20060;-58
2021/12/19 08:19:55;;;;;;;269.75;128.82;;;;;;;-1.54;89.43;97993.53;10380521;28;20021;-58
2021/12/19 08:24:57;;;;;;;253.30;124.55;;;;;;;-1.58;89.24;97985.66;10351838;28;20029;-58
2021/12/19 08:29:56;;;;;;;169.82;84.82;;;;;;;-1.49;88.64;97970.88;10356498;28;20053;-58
2021/12/19 08:34:54;;;;;;;121.78;61.28;;;;;;;-1.44;89.20;97966.88;10367378;28;20036;-57
2021/12/19 08:39:53;;;;;;;75.72;37.53;;;;;;;-1.54;88.97;97959.56;10379099;28;20079;-58
2021/12/19 08:44:53;;;;;;;81.65;40.30;;;;;;;-1.57;88.74;97950.09;10378962;28;20021;-58
2021/12/19 08:49:52;;;;;;;86.88;45.20;;;;;;;-1.47;89.31;97961.59;10376237;28;20071;-58
2021/12/19 08:54:51;;;;;;;92.57;46.78;;;;;;;-1.40;89.51;97943.28;10376710;28;20025;-58
2021/12/19 08:59:50;;;;;;;81.82;43.38;;;;;;;-1.20;88.77;97951.03;10372880;28;20049;-57
2021/12/19 09:04:49;;;;;;;82.22;39.95;;;;;;;-0.98;89.25;97952.91;10398780;28;20031;-58
2021/12/19 09:09:48;;;;;;;79.75;44.15;;;;;;;-0.78;88.94;97957.28;10357179;28;20053;-57
2021/12/19 09:14:47;;;;;;;;;;;;;;;-0.54;88.87;97946.47;10361339;28;20473;-58
2021/12/19 09:19:46;;;;;;;70.55;40.70;;;;;;;-0.41;88.52;97936.91;10336151;28;20308;-58
2021/12/19 09:24:45;;;;;;;72.63;41.78;;;;;;;-0.24;88.34;97911.28;10335233;28;20029;-57
2021/12/19 09:29:44;;;;;;;69.25;40.55;;;;;;;0.05;87.61;97907.41;10334259;28;20496;-59
2021/12/19 09:34:43;;;;;;;61.90;37.88;;;;;;;0.24;87.81;97891.19;10331194;28;20484;-58
2021/12/19 09:39:42;;;;;;;57.45;35.90;;;;;;;0.40;87.48;97879.94;10365324;28;20068;-58
2021/12/19 09:44:41;;;;;;;;;;;;;;;0.71;86.88;97868.41;10368634;28;20083;-58
2021/12/19 09:49:40;;;;;;;45.33;29.05;;;;;;;1.11;87.28;97841.03;10368120;28;20003;-58
2021/12/19 09:54:41;;;;;;;49.85;30.20;;;;;;;1.47;86.95;97844.88;10372909;28;20064;-58
2021/12/19 09:59:40;;;;;;;51.63;30.73;;;;;;;1.78;84.92;97833.16;10355021;28;20061;-58
2021/12/19 10:04:42;;;;;;;16.88;10.48;;;;;;;2.12;84.74;97818.13;10332102;28;20037;-58
2021/12/19 10:10:12;;;;;;;19.20;11.90;;;;;;;2.42;78.00;97817.41;10332580;28;20060;-58
2021/12/19 10:15:12;;;;;;;;;;;;;;;2.70;77.31;97797.75;10366936;28;20071;-58
2021/12/19 10:20:16;;;;;;;21.58;11.00;;;;;;;2.94;74.23;97777.13;10373098;28;20380;-58
2021/12/19 10:25:27;;;;;;;13.30;7.20;;;;;;;3.24;74.47;97779.72;10341512;28;20472;-58
2021/12/19 10:30:35;;;;;;;13.80;7.80;;;;;;;3.38;71.78;97770.69;10331449;28;20049;-59
2021/12/19 10:35:40;;;;;;;12.40;8.38;;;;;;;3.46;69.71;97762.34;10331017;28;20061;-59
2021/12/19 10:40:43;;;;;;;14.73;9.65;;;;;;;3.59;69.04;97751.59;10331155;28;20065;-59
2021/12/19 10:45:57;;;;;;;12.65;7.55;;;;;;;3.65;70.76;97714.09;10328634;28;20072;-59
2021/12/19 10:51:00;;;;;;;13.00;8.35;;;;;;;3.97;69.65;97715.75;10329413;28;20080;-59
2021/12/19 10:56:00;;;;;;;11.90;8.02;;;;;;;3.95;69.31;97707.13;10331280;28;20057;-59
2021/12/19 11:01:13;;;;;;;13.68;9.30;;;;;;;3.99;69.29;97698.69;10330027;28;20072;-59
2021/12/19 11:06:22;;;;;;;14.77;8.98;;;;;;;3.97;69.46;97692.63;10330476;28;20155;-59
2021/12/19 11:11:41;;;;;;;15.63;9.05;;;;;;;3.89;69.00;97679.59;10364634;28;20056;-59
2021/12/19 11:16:41;;;;;;;14.30;8.73;;;;;;;3.74;70.03;97646.75;10411662;28;20087;-59
2021/12/19 11:21:41;;;;;;;14.55;9.05;;;;;;;3.70;67.91;97660.31;10381050;28;20767;-63
2021/12/19 11:26:45;;;;;;;17.05;10.20;;;;;;;3.57;68.02;97646.34;10370318;28;20518;-59
2021/12/19 11:31:49;;;;;;;14.45;8.77;;;;;;;3.50;68.26;97635.91;10371126;28;20499;-59
2021/12/19 11:36:55;;;;;;;14.23;9.88;;;;;;;3.46;68.58;97627.25;10368629;28;20068;-59
2021/12/19 11:42:31;;;;;;;16.08;9.75;;;;;;;3.47;66.55;97616.13;10370795;28;20060;-59
2021/12/19 11:47:46;;;;;;;15.02;10.73;;;;;;;3.47;67.30;97607.56;10351556;28;20088;-59
2021/12/19 11:52:45;;;;;;;18.33;10.77;;;;;;;3.54;67.61;97609.47;10329136;28;20061;-59
2021/12/19 11:58:07;;;;;;;15.82;10.48;;;;;;;3.67;66.58;97598.66;10330936;28;20065;-59
2021/12/19 12:03:12;;;;;;;17.25;11.43;;;;;;;3.90;67.24;97582.94;10369952;28;20536;-59
2021/12/19 12:08:17;;;;;;;17.25;10.88;;;;;;;4.18;66.91;97569.00;10370148;28;20128;-59
2021/12/19 12:13:28;;;;;;;17.13;11.25;;;;;;;4.26;65.50;97550.31;10334638;28;20065;-59
2021/12/19 12:18:34;;;;;;;20.45;13.10;;;;;;;4.29;66.64;97550.41;10327841;28;20077;-59
2021/12/19 12:23:33;;;;;;;18.40;11.63;;;;;;;4.27;64.80;97534.09;10327734;28;20064;-59
2021/12/19 12:28:32;;;;;;;25.40;14.90;;;;;;;4.30;66.51;97543.56;10331773;28;20067;-59
2021/12/19 12:33:32;;;;;;;26.52;16.67;;;;;;;4.28;65.80;97525.53;10336110;28;20037;-59
2021/12/19 12:38:33;;;;;;;28.67;17.60;;;;;;;4.20;66.87;97506.56;10335903;28;20072;-58
2021/12/19 12:43:39;;;;;;;25.08;15.82;;;;;;;4.12;67.14;97518.38;10334698;28;20384;-58
2021/12/19 12:48:40;;;;;;;25.10;14.32;;;;;;;4.08;67.10;97508.88;10344585;28;20068;-58
2021/12/19 12:53:49;;;;;;;24.08;14.45;;;;;;;3.88;66.81;97492.19;10349520;28;20492;-58
2021/12/19 12:58:55;;;;;;;21.02;14.23;;;;;;;3.73;67.45;97493.59;10353238;28;20087;-58
2021/12/19 13:04:10;;;;;;;25.58;16.23;;;;;;;3.59;67.74;97492.44;10338088;28;20061;-58
2021/12/19 13:09:12;;;;;;;22.35;14.20;;;;;;;3.58;67.99;97488.13;10334468;28;20061;-58
2021/12/19 13:14:12;;;;;;;19.27;12.38;;;;;;;3.61;68.91;97481.38;10374775;28;20064;-58
2021/12/19 13:19:39;;;;;;;15.98;10.27;;;;;;;3.60;68.15;97471.06;10373125;28;20064;-58
2021/12/19 13:24:38;;;;;;;20.27;12.20;;;;;;;3.52;67.30;97473.47;10375150;28;20068;-58
2021/12/19 13:29:39;;;;;;;20.20;12.95;;;;;;;3.58;68.39;97459.91;10373310;28;20064;-58
2021/12/19 13:34:39;;;;;;;17.20;11.13;;;;;;;3.40;66.82;97466.38;10370045;28;20064;-58
2021/12/19 13:39:38;;;;;;;18.67;11.63;;;;;;;3.38;68.18;97456.91;10373974;28;20152;-58
2021/12/19 13:44:38;;;;;;;16.85;10.88;;;;;;;3.20;68.19;97435.13;10365281;28;20056;-58
2021/12/19 13:49:37;;;;;;;17.60;10.82;;;;;;;3.17;67.42;97436.78;10371542;28;20114;-58
2021/12/19 13:54:40;;;;;;;20.85;11.75;;;;;;;3.20;68.60;97424.03;10366431;28;20060;-58
2021/12/19 13:59:40;;;;;;;18.35;11.23;;;;;;;3.16;68.55;97409.41;10360054;28;20083;-58
2021/12/19 14:04:39;;;;;;;16.50;10.75;;;;;;;3.22;68.87;97420.66;10354086;28;20064;-58
2021/12/19 14:09:41;;;;;;;17.42;11.75;;;;;;;3.21;69.07;97408.69;10350051;28;20516;-58
2021/12/19 14:14:40;;;;;;;20.30;13.40;;;;;;;3.13;69.31;97393.94;10359546;28;20116;-58
2021/12/19 14:19:42;;;;;;;22.80;14.25;;;;;;;3.12;69.51;97382.84;10355515;28;20531;-58
2021/12/19 14:24:51;;;;;;;18.33;11.82;;;;;;;3.06;69.56;97392.09;10363166;28;20577;-58
2021/12/19 14:29:54;;;;;;;23.57;13.63;;;;;;;2.85;69.34;97402.72;10370569;28;20064;-57
2021/12/19 14:34:56;;;;;;;23.98;14.23;;;;;;;2.77;70.46;97392.28;10369447;28;20061;-58
2021/12/19 14:40:14;;;;;;;19.75;12.00;;;;;;;2.55;69.57;97393.44;10340770;28;20505;-58
2021/12/19 14:45:24;;;;;;;26.58;13.85;;;;;;;2.38;70.88;97385.34;10354297;28;20069;-58
2021/12/19 14:50:24;;;;;;;;;;;;;;;2.20;70.93;97387.44;10367415;28;20059;-58
2021/12/19 14:55:26;;;;;;;23.38;13.40;;;;;;;2.08;71.14;97393.97;10370245;28;19970;-58
2021/12/19 15:00:25;;;;;;;19.15;11.32;;;;;;;1.94;72.01;97390.16;10371587;28;20073;-58
2021/12/19 15:05:24;;;;;;;19.63;11.77;;;;;;;1.74;72.00;97382.84;10369428;28;20032;-58
2021/12/19 15:10:23;;;;;;;20.63;12.27;;;;;;;1.65;72.66;97374.91;10365137;28;20120;-58
2021/12/19 15:15:22;;;;;;;21.42;12.75;;;;;;;1.51;72.60;97376.22;10367653;28;20039;-58
2021/12/19 15:20:21;;;;;;;24.40;15.73;;;;;;;1.41;73.11;97367.41;10358132;28;20111;-58
2021/12/19 15:25:20;;;;;;;26.38;16.20;;;;;;;1.52;73.21;97383.91;10342719;28;20071;-58
2021/12/19 15:30:19;;;;;;;28.88;17.40;;;;;;;1.52;73.54;97371.13;10356288;28;20033;-58
2021/12/19 15:35:18;;;;;;;24.63;15.25;;;;;;;1.52;73.98;97371.13;10336006;28;20102;-58
2021/12/19 15:40:17;;;;;;;30.98;17.75;;;;;;;1.51;74.37;97369.41;10368405;28;20150;-58
2021/12/19 15:45:17;;;;;;;32.50;20.05;;;;;;;1.42;74.49;97358.91;10354391;28;20068;-58
2021/12/19 15:50:16;;;;;;;31.38;19.25;;;;;;;1.27;74.36;97323.56;10369335;28;20068;-58
2021/12/19 15:55:15;;;;;;;25.25;14.27;;;;;;;1.21;74.59;97320.81;10369734;28;20037;-58
2021/12/19 16:00:24;;;;;;;;;;;;;;;1.26;74.71;97326.06;10333054;28;20084;-58
2021/12/19 16:05:24;;;;;;;30.27;17.50;;;;;;;1.20;74.95;97324.22;10334321;28;19960;-58
2021/12/19 16:10:23;;;;;;;29.45;17.17;;;;;;;1.19;75.13;97301.16;10336421;28;20057;-58
2021/12/19 16:15:23;;;;;;;26.63;17.00;;;;;;;1.23;75.29;97298.72;10336808;28;20064;-58
2021/12/19 16:20:24;;;;;;;30.17;17.65;;;;;;;1.28;75.29;97301.41;10335410;28;20542;-58
2021/12/19 16:25:26;;;;;;;33.60;19.70;;;;;;;1.31;75.41;97301.50;10336665;28;20064;-58
2021/12/19 16:30:25;;;;;;;79.32;45.80;;;;;;;1.21;75.49;97290.16;10336805;28;20060;-58
2021/12/19 16:35:27;;;;;;;40.30;23.73;;;;;;;1.28;75.84;97286.94;10361324;28;20076;-58
2021/12/19 16:40:32;;;;;;;30.38;17.33;;;;;;;1.09;75.63;97264.25;10374954;28;20519;-58
2021/12/19 16:45:31;;;;;;;32.85;18.88;;;;;;;1.11;75.55;97266.03;10373418;28;20519;-58
2021/12/19 16:50:30;;;;;;;28.67;17.20;;;;;;;1.05;75.66;97268.41;10374926;28;20039;-58
2021/12/19 16:55:29;;;;;;;24.85;13.60;;;;;;;1.05;75.93;97265.00;10373770;28;20076;-59
2021/12/19 17:00:29;;;;;;;25.60;13.95;;;;;;;1.00;76.15;97254.63;10372595;28;20146;-58
2021/12/19 17:05:30;;;;;;;24.48;13.10;;;;;;;1.00;76.31;97259.75;10374548;28;20551;-58
2021/12/19 17:10:29;;;;;;;27.10;14.50;;;;;;;0.99;76.49;97246.91;10372765;28;20068;-58
2021/12/19 17:15:30;;;;;;;35.13;18.58;;;;;;;0.95;76.51;97229.81;10375025;28;20064;-58
2021/12/19 17:20:29;;;;;;;35.03;20.23;;;;;;;0.99;76.89;97236.69;10373652;28;20408;-58
2021/12/19 17:25:28;;;;;;;32.60;18.15;;;;;;;0.90;76.91;97217.75;10335132;28;20072;-58
2021/12/19 17:30:27;;;;;;;32.80;19.25;;;;;;;0.87;77.01;97245.78;10334322;28;20033;-59
2021/12/19 17:35:26;;;;;;;32.85;20.30;;;;;;;0.92;77.18;97229.69;10353282;28;20072;-58
2021/12/19 17:40:42;;;;;;;29.30;17.15;;;;;;;0.99;77.18;97236.69;10374658;28;20095;-58
2021/12/19 17:45:41;;;;;;;33.53;17.60;;;;;;;1.03;77.44;97233.41;10354901;28;20086;-58
2021/12/19 17:50:40;;;;;;;35.60;20.00;;;;;;;0.98;77.52;97225.63;10368879;28;20024;-58
2021/12/19 17:55:39;;;;;;;;;;;;;;;0.98;77.60;97220.50;10368935;28;20480;-58
2021/12/19 18:00:39;;;;;;;28.58;16.00;;;;;;;0.94;77.96;97210.16;10332136;28;20315;-58
2021/12/19 18:05:38;;;;;;;28.45;16.67;;;;;;;0.96;78.32;97195.75;10336562;28;20549;-58
2021/12/19 18:10:38;;;;;;;25.50;15.82;;;;;;;0.93;78.49;97172.69;10365026;28;20477;-57
2021/12/19 18:15:37;;;;;;;29.38;16.52;;;;;;;1.08;78.60;97181.63;10365149;28;20131;-58
2021/12/19 18:20:36;;;;;;;24.00;14.02;;;;;;;1.19;78.49;97169.13;10363287;28;20120;-58
2021/12/19 18:25:35;;;;;;;26.25;15.77;;;;;;;1.32;78.59;97178.00;10358668;28;20143;-58
2021/12/19 18:30:35;;;;;;;;;;;;;;;1.42;78.60;97162.06;10364691;28;20554;-58
2021/12/19 18:35:36;;;;;;;42.63;25.70;;;;;;;1.28;77.61;97154.03;10364766;28;20012;-57
2021/12/19 18:40:37;;;;;;;44.20;26.52;;;;;;;1.37;77.37;97196.00;10362174;28;20131;-58
2021/12/19 18:51:32;;;;;;;52.78;32.25;;;;;;;1.20;77.29;97192.97;10347729;28;20124;-58
2021/12/19 18:56:21;;;;;;;62.20;37.95;;;;;;;1.11;77.48;97207.25;10358873;28;20120;-58
2021/12/19 19:01:36;;;;;;;;;;;;;;;1.04;77.76;97207.06;10360995;28;20531;-58
2021/12/19 19:06:35;;;;;;;49.40;30.40;;;;;;;0.91;77.72;97203.28;10361558;28;20003;-58
2021/12/19 19:11:34;;;;;;;43.58;26.55;;;;;;;0.79;77.98;97185.94;10363603;28;20063;-58
2021/12/19 19:16:35;;;;;;;79.57;48.10;;;;;;;0.74;78.24;97177.28;10362063;28;20123;-57
2021/12/19 19:21:39;;;;;;;106.32;64.25;;;;;;;0.74;78.17;97187.50;10362312;28;20143;-57
2021/12/19 19:26:40;;;;;;;91.40;53.53;;;;;;;0.67;78.48;97177.94;10358353;28;20111;-58
2021/12/19 19:31:41;;;;;;;112.25;66.72;;;;;;;0.50;78.79;97172.34;10359654;28;20107;-58
2021/12/19 19:36:44;;;;;;;117.22;66.88;;;;;;;0.35;79.05;97165.09;10360731;28;20119;-58
2021/12/19 19:42:00;;;;;;;57.60;33.10;;;;;;;0.15;79.80;97167.06;10368499;28;20530;-57
2021/12/19 19:52:19;;;;;;;36.95;22.23;;;;;;;0.31;80.25;97177.72;10371295;28;20128;-57
2021/12/19 19:57:18;;;;;;;38.67;21.20;;;;;;;0.33;80.82;97169.28;10363236;28;20195;-57
2021/12/19 20:02:17;;;;;;;49.67;28.45;;;;;;;0.37;80.74;97160.91;10368625;28;20171;-57
2021/12/19 20:07:18;;;;;;;56.25;30.90;;;;;;;0.31;80.62;97149.66;10370783;28;20127;-57
2021/12/19 20:12:17;;;;;;;56.17;32.50;;;;;;;0.11;80.56;97138.88;10366810;28;20124;-57
2021/12/19 20:17:16;;;;;;;49.03;29.33;;;;;;;0.01;80.98;97133.50;10366597;28;20419;-58
2021/12/19 20:22:17;;;;;;;54.63;30.98;;;;;;;-0.01;81.12;97135.13;10368542;28;20045;-57
2021/12/19 20:27:18;;;;;;;38.63;22.23;;;;;;;-0.07;81.06;97129.81;10363504;28;20744;-57
2021/12/19 20:32:17;;;;;;;31.85;18.17;;;;;;;-0.04;81.65;97131.59;10368245;28;20912;-57
2021/12/19 20:37:16;;;;;;;;;;;;;;;0.05;81.70;97119.13;10369919;28;20487;-57
2021/12/19 20:42:16;;;;;;;25.20;14.52;;;;;;;0.16;81.98;97117.75;10364100;28;20398;-57
2021/12/19 20:47:15;;;;;;;24.77;13.45;;;;;;;0.27;81.54;97120.63;10367208;28;20159;-57
2021/12/19 20:52:15;;;;;;;22.10;13.40;;;;;;;0.33;81.13;97130.16;10364703;28;20139;-58
2021/12/19 20:57:15;;;;;;;26.55;13.60;;;;;;;0.26;81.09;97119.78;10361255;28;20115;-57
2021/12/19 21:02:14;;;;;;;24.48;14.40;;;;;;;0.31;80.51;97132.69;10366362;28;20698;-58
2021/12/19 21:07:13;;;;;;;84.53;46.78;;;;;;;0.12;80.34;97132.94;10365982;28;20543;-57
2021/12/19 21:12:24;;;;;;;96.00;54.95;;;;;;;-0.02;80.21;97129.97;10365903;28;20144;-58
2021/12/19 21:22:41;;;;;;;103.13;57.83;;;;;;;-0.55;81.10;97130.03;10366655;28;20120;-57
2021/12/19 21:27:40;;;;;;;88.03;50.00;;;;;;;-0.63;82.02;97139.09;10366150;28;20045;-57
2021/12/19 21:32:39;;;;;;;81.07;44.55;;;;;;;-0.67;82.12;97134.75;10364938;28;20080;-58
2021/12/19 21:42:59;;;;;;;146.63;85.18;;;;;;;-0.78;83.04;97128.44;10365550;28;20123;-58
2021/12/19 21:47:57;;;;;;;131.60;76.53;;;;;;;-0.72;82.96;97126.94;10360298;28;20555;-57
2021/12/19 21:52:57;;;;;;;148.50;78.18;;;;;;;-0.73;82.77;97117.56;10358967;28;20484;-58
2021/12/19 21:57:56;;;;;;;146.73;87.78;;;;;;;-0.55;83.25;97135.13;10364918;28;20180;-57
2021/12/19 22:02:55;;;;;;;127.97;71.45;;;;;;;-0.49;83.14;97140.41;10365204;28;20171;-57
2021/12/19 22:07:55;;;;;;;112.53;64.57;;;;;;;-0.28;82.97;97140.22;10367577;28;20072;-58
2021/12/19 22:13:04;;;;;;;124.90;68.13;;;;;;;-0.12;83.04;97130.50;10368241;28;20113;-58
2021/12/19 22:18:07;;;;;;;102.33;59.63;;;;;;;0.03;83.27;97130.97;10363554;28;20151;-58
2021/12/19 22:23:09;;;;;;;77.93;45.33;;;;;;;0.19;82.83;97142.50;10366683;28;20116;-58
2021/12/19 22:28:10;;;;;;;86.07;49.70;;;;;;;0.08;82.99;97143.84;10364708;28;20477;-58
2021/12/19 22:33:09;;;;;;;72.55;42.08;;;;;;;0.01;82.99;97123.28;10361791;28;20104;-58
2021/12/19 22:38:08;;;;;;;76.25;43.33;;;;;;;0.01;82.37;97136.03;10366953;28;20035;-58
2021/12/19 22:43:07;;;;;;;;;;;;;;;0.12;82.73;97161.00;10364812;28;20120;-57
2021/12/19 22:48:06;;;;;;;59.15;35.20;;;;;;;0.08;82.61;97142.19;10364885;28;19920;-58
2021/12/19 22:53:05;;;;;;;;;;;;;;;0.18;82.83;97154.41;10367507;28;20135;-58
2021/12/19 22:58:06;;;;;;;43.85;25.80;;;;;;;-0.02;82.43;97141.06;10364935;28;20628;-58
2021/12/19 23:03:09;;;;;;;46.45;28.17;;;;;;;-0.17;82.86;97149.09;10363874;28;20861;-57
2021/12/19 23:08:09;;;;;;;49.78;29.77;;;;;;;-0.01;82.85;97155.53;10363643;28;20507;-57
2021/12/19 23:13:14;;;;;;;51.67;29.48;;;;;;;0.16;82.71;97134.75;10377174;28;20164;-57
2021/12/19 23:18:13;;;;;;;42.08;24.17;;;;;;;0.32;82.69;97123.31;10361208;28;20124;-57
2021/12/19 23:23:12;;;;;;;41.58;23.58;;;;;;;0.40;82.96;97120.16;10361610;28;20033;-58
2021/12/19 23:28:11;;;;;;;49.78;27.05;;;;;;;0.41;82.77;97121.03;10362849;28;20123;-57
2021/12/19 23:48:41;;;;;;;47.42;30.70;;;;;;;0.13;82.69;97120.22;10365716;28;20120;-57
2021/12/19 23:53:40;;;;;;;54.78;33.53;;;;;;;0.20;83.31;97128.94;10364390;28;20041;-57
2021/12/19 23:58:39;;;;;;;60.28;35.90;;;;;;;0.17;82.95;97111.84;10363585;28;20056;-58
